Beauregard Regional

About
Name: Beauregard Regional
Identifier:  DRI/KDRI
Serves:  De Ridder, Louisiana
Owner:  Beauregard Parish
Public/Private:  Public
Local Time:  23. Aug 00:45 CDT
Description: Beauregard Regional Airport is a public use airport in Beauregard Parish, Louisiana, United States. It is owned by Beauregard Parish and is located three nautical miles southwest of the central business district of De Ridder, Louisiana. The airport serves the general aviation community, with no scheduled commercial airline service.
Source: Wikipedia
Location
Runways
Identifier Length (m/ft) Surface
14/32 4,220/4,220 Asphalt
18/36 5,495/5,495 Asphalt/Concrete
Flights per Day
0 flights
Distance: 228km (142mi)
Punctuality
0% (0 flights per day delayed)
Delay Average: 47 minutes
Current Weather
 26 C (Humidity: 94%)
  0kt (0km/h / 0mph) from 0°
  16km (10 mi.)
 
 METAR KDRI 230515Z AUTO 00000KT 10SM CLR 26/25 A2999 RMK AO2 T02550247

Current Flights

Departures
Number Departure To Airline
Arrivals
Number Arrival From Airline

Current Delays

Departures
N/A
Arrivals
N/A

Destinations

Top Destinations
Airport Flights
per week
Seats
per week
  Fort Stewart(Hinesville) (LIY) 0 - 0 0
  Moultrie (MGR) 0 - 0 0

Airlines & Planes

Top Airlines
Airline Flights
per Day
Seats
per Day
  Nolinor Aviation 0 -
  Flybe Nordic 0 -
Top Plane Types
Model Flights Seats